createdAt,value
2023-03-06T00:00:32.437Z,17.50
2023-03-06T00:03:00.114Z,16.85
2023-03-06T00:05:27.911Z,16.33
2023-03-06T00:07:55.620Z,15.30
2023-03-06T00:10:25.799Z,16.77
2023-03-06T00:12:53.814Z,16.65
2023-03-06T00:15:23.232Z,16.70
2023-03-06T00:17:50.852Z,15.50
2023-03-06T00:20:19.323Z,15.30
2023-03-06T00:22:47.175Z,16.27
2023-03-06T00:25:16.170Z,14.63
2023-03-06T00:27:43.802Z,15.63
2023-03-06T00:30:13.657Z,16.20
2023-03-06T00:32:42.929Z,14.88
2023-03-06T00:35:11.441Z,18.08
2023-03-06T00:37:39.144Z,18.05
2023-03-06T00:40:07.549Z,15.60
2023-03-06T00:42:35.196Z,17.67
2023-03-06T00:45:02.955Z,15.43
2023-03-06T00:47:30.667Z,16.63
2023-03-06T00:49:59.729Z,14.57
2023-03-06T00:52:27.483Z,15.73
2023-03-06T00:54:55.289Z,14.75
2023-03-06T00:57:22.933Z,15.95
2023-03-06T00:59:50.640Z,15.45
2023-03-06T01:02:18.642Z,16.00
2023-03-06T01:04:46.404Z,15.82
2023-03-06T01:07:15.440Z,15.50
2023-03-06T01:09:43.144Z,15.48
2023-03-06T01:12:10.987Z,15.50
2023-03-06T01:14:38.834Z,16.40
2023-03-06T01:17:07.646Z,14.57
2023-03-06T01:19:35.317Z,15.82
2023-03-06T01:22:02.940Z,16.13
2023-03-06T01:24:31.970Z,16.13
2023-03-06T01:26:59.678Z,16.23
2023-03-06T01:29:27.465Z,15.77
2023-03-06T01:31:55.109Z,15.63
2023-03-06T01:34:22.789Z,16.00
2023-03-06T01:36:50.424Z,15.52
2023-03-06T01:39:18.068Z,15.00
2023-03-06T01:41:47.035Z,16.75
2023-03-06T01:44:14.665Z,16.05
2023-03-06T01:46:43.479Z,16.38
2023-03-06T01:49:22.584Z,15.13
2023-03-06T01:51:52.722Z,15.40
2023-03-06T01:54:23.977Z,16.08
2023-03-06T01:56:55.470Z,15.65
2023-03-06T01:59:23.578Z,16.35
2023-03-06T02:01:51.651Z,16.65
2023-03-06T02:04:19.785Z,15.02
2023-03-06T02:06:48.531Z,17.10
2023-03-06T02:09:16.859Z,15.43
2023-03-06T02:11:46.214Z,15.10
2023-03-06T02:14:17.079Z,17.15
2023-03-06T02:16:44.959Z,16.17
2023-03-06T02:19:22.923Z,17.85
2023-03-06T02:21:50.872Z,15.00
2023-03-06T02:24:28.052Z,15.48
2023-03-06T02:26:57.803Z,16.40
2023-03-06T02:29:28.061Z,16.02
2023-03-06T02:31:56.267Z,15.45
2023-03-06T02:34:57.518Z,15.40
2023-03-06T02:37:27.495Z,15.23
2023-03-06T02:40:02.964Z,16.45
2023-03-06T02:42:32.075Z,15.27
2023-03-06T02:45:02.303Z,14.10
2023-03-06T02:47:30.139Z,14.70
2023-03-06T02:49:57.801Z,15.27
2023-03-06T02:52:25.478Z,14.20
2023-03-06T02:54:53.124Z,14.85
2023-03-06T02:57:20.835Z,15.45
2023-03-06T02:59:49.844Z,14.98
2023-03-06T03:02:17.515Z,14.30
2023-03-06T03:04:45.179Z,14.15
2023-03-06T03:07:12.878Z,15.93
2023-03-06T03:09:40.494Z,14.95
2023-03-06T03:12:08.994Z,15.68
2023-03-06T03:14:36.713Z,15.77
2023-03-06T03:17:05.848Z,14.82
2023-03-06T03:19:33.614Z,14.63
2023-03-06T03:22:01.283Z,14.82
2023-03-06T03:24:29.061Z,14.90
2023-03-06T03:26:56.786Z,15.05
2023-03-06T03:29:24.637Z,14.38
2023-03-06T03:31:52.345Z,15.93
2023-03-06T03:34:21.369Z,16.40
2023-03-06T03:36:49.027Z,15.50
2023-03-06T03:39:16.657Z,16.30
2023-03-06T03:41:44.289Z,16.23
2023-03-06T03:44:11.921Z,16.08
2023-03-06T03:46:39.753Z,15.07
2023-03-06T03:49:07.622Z,14.77
2023-03-06T03:51:36.662Z,16.88
2023-03-06T03:54:06.117Z,14.70
2023-03-06T03:56:34.499Z,15.02
2023-03-06T03:59:02.114Z,15.05
2023-03-06T04:01:29.836Z,15.10
2023-03-06T04:03:57.501Z,16.05
2023-03-06T04:06:25.138Z,14.10
2023-03-06T04:08:54.114Z,14.75
2023-03-06T04:11:21.772Z,15.68
2023-03-06T04:13:49.445Z,13.73
2023-03-06T04:16:17.108Z,15.43
2023-03-06T04:18:44.734Z,14.65
2023-03-06T04:21:12.763Z,14.25
2023-03-06T04:23:40.463Z,15.57
2023-03-06T04:26:10.194Z,15.45
2023-03-06T04:28:37.798Z,15.07
2023-03-06T04:31:05.706Z,14.27
2023-03-06T04:33:33.498Z,15.35
2023-03-06T04:36:01.176Z,14.18
2023-03-06T04:38:28.779Z,14.60
2023-03-06T04:40:56.469Z,14.88
2023-03-06T04:43:25.568Z,13.73
2023-03-06T04:45:53.343Z,13.98
2023-03-06T04:48:21.040Z,14.80
2023-03-06T04:50:48.716Z,15.32
2023-03-06T04:53:16.951Z,14.98
2023-03-06T04:55:44.572Z,14.85
2023-03-06T04:58:12.641Z,15.85
2023-03-06T05:00:41.740Z,15.88
2023-03-06T05:03:09.913Z,14.85
2023-03-06T05:05:37.540Z,14.48
2023-03-06T05:08:05.487Z,15.80
2023-03-06T05:10:33.159Z,16.60
2023-03-06T05:13:00.768Z,17.42
2023-03-06T05:15:28.360Z,15.98
2023-03-06T05:17:57.724Z,16.48
2023-03-06T05:20:25.370Z,14.70
2023-03-06T05:25:59.653Z,16.13
2023-03-06T05:28:28.618Z,15.38
2023-03-06T05:30:56.398Z,16.70
2023-03-06T05:33:26.552Z,16.92
2023-03-06T05:35:54.345Z,16.77
2023-03-06T05:38:23.129Z,15.25
2023-03-06T05:40:50.770Z,16.30
2023-03-06T05:44:17.098Z,15.18
2023-03-06T05:46:44.734Z,17.85
2023-03-06T05:49:13.778Z,16.90
2023-03-06T05:51:41.480Z,19.02
2023-03-06T05:54:09.115Z,20.58
2023-03-06T05:56:37.020Z,18.88
2023-03-06T05:59:04.708Z,20.77
2023-03-06T06:01:32.365Z,20.33
2023-03-06T06:04:00.132Z,19.20
2023-03-06T06:06:29.198Z,19.83
2023-03-06T06:08:56.831Z,19.90
2023-03-06T06:11:24.532Z,19.95
2023-03-06T06:13:52.239Z,20.75
2023-03-06T06:16:19.953Z,19.60
2023-03-06T06:18:47.998Z,21.33
2023-03-06T06:21:15.938Z,20.13
2023-03-06T06:23:45.043Z,20.88
2023-03-06T06:26:12.815Z,19.38
2023-03-06T06:28:40.490Z,20.50
2023-03-06T06:31:12.645Z,20.25
2023-03-06T06:33:40.596Z,18.23
2023-03-06T06:36:16.683Z,19.42
2023-03-06T06:38:45.828Z,20.30
2023-03-06T06:44:01.412Z,21.38
2023-03-06T06:49:17.386Z,19.83
2023-03-06T06:51:45.275Z,21.35
2023-03-06T06:54:14.393Z,21.30
2023-03-06T06:56:42.039Z,25.20
2023-03-06T06:59:16.534Z,22.88
2023-03-06T07:01:44.746Z,26.83
2023-03-06T07:04:13.539Z,27.23
2023-03-06T07:06:41.599Z,25.83
2023-03-06T07:09:09.273Z,21.45
2023-03-06T07:11:38.792Z,21.85
2023-03-06T07:14:06.575Z,22.10
2023-03-06T07:16:34.257Z,22.23
2023-03-06T07:19:01.910Z,22.33
2023-03-06T07:21:29.604Z,22.48
2023-03-06T07:23:57.723Z,22.48
2023-03-06T07:26:25.490Z,23.92
2023-03-06T07:28:54.886Z,23.85
2023-03-06T07:31:24.451Z,20.80
2023-03-06T07:33:52.660Z,21.35
2023-03-06T07:36:20.636Z,21.90
2023-03-06T07:38:48.397Z,21.17
2023-03-06T07:41:17.149Z,21.27
2023-03-06T07:43:46.167Z,21.50
2023-03-06T07:46:15.346Z,22.60
2023-03-06T07:48:43.504Z,20.88
2023-03-06T07:51:16.850Z,20.40
2023-03-06T07:53:44.931Z,21.83
2023-03-06T07:56:13.627Z,19.63
2023-03-06T07:58:43.196Z,18.15
2023-03-06T08:01:13.196Z,19.67
2023-03-06T08:03:42.316Z,22.00
2023-03-06T08:06:11.912Z,20.58
2023-03-06T08:08:41.167Z,19.55
2023-03-06T08:11:09.098Z,21.27
2023-03-06T08:13:37.296Z,19.50
2023-03-06T08:16:05.936Z,18.65
2023-03-06T08:18:34.041Z,19.75
2023-03-06T08:21:08.408Z,18.77
2023-03-06T08:23:36.337Z,19.30
2023-03-06T08:26:06.337Z,19.98
2023-03-06T08:28:34.433Z,19.52
2023-03-06T08:31:09.266Z,19.38
2023-03-06T08:33:37.094Z,20.92
2023-03-06T08:36:06.964Z,20.33
2023-03-06T08:38:34.638Z,19.45
2023-03-06T08:41:02.361Z,18.38
2023-03-06T08:43:29.983Z,18.05
2023-03-06T08:45:58.808Z,19.38
2023-03-06T08:48:26.679Z,19.52
2023-03-06T08:50:54.946Z,20.33
2023-03-06T08:53:40.400Z,19.42
2023-03-06T08:56:16.456Z,21.15
2023-03-06T08:58:44.222Z,20.17
2023-03-06T09:01:14.853Z,21.55
2023-03-06T09:03:42.687Z,19.80
2023-03-06T09:06:10.338Z,20.25
2023-03-06T09:08:42.911Z,20.08
2023-03-06T09:11:10.729Z,18.52
2023-03-06T09:13:38.471Z,20.80
2023-03-06T09:16:06.934Z,21.02
2023-03-06T09:18:34.658Z,20.35
2023-03-06T09:21:02.680Z,18.83
2023-03-06T09:23:30.330Z,21.00
2023-03-06T09:26:00.755Z,19.02
2023-03-06T09:28:28.700Z,19.33
2023-03-06T09:30:56.660Z,19.25
2023-03-06T09:33:25.030Z,18.75
2023-03-06T09:35:54.545Z,17.33
2023-03-06T09:38:23.604Z,19.52
2023-03-06T09:41:02.778Z,18.90
2023-03-06T09:43:33.055Z,17.67
2023-03-06T09:46:00.669Z,19.42
2023-03-06T09:48:34.520Z,19.38
2023-03-06T09:51:03.840Z,19.17
2023-03-06T09:53:43.372Z,18.73
2023-03-06T09:56:16.309Z,18.48
2023-03-06T09:58:48.918Z,20.13
2023-03-06T10:01:20.210Z,17.80
2023-03-06T10:03:50.790Z,16.60
2023-03-06T10:06:22.576Z,17.80
2023-03-06T10:08:52.738Z,16.73
2023-03-06T10:11:26.064Z,15.85
2023-03-06T10:14:08.850Z,17.45
2023-03-06T10:16:36.801Z,17.77
2023-03-06T10:19:08.532Z,17.42
2023-03-06T10:21:44.491Z,16.45
2023-03-06T10:24:21.497Z,16.92
2023-03-06T10:26:54.074Z,15.95
2023-03-06T10:29:43.653Z,18.23
2023-03-06T10:32:17.609Z,18.58
2023-03-06T10:37:19.527Z,17.75
2023-03-06T10:39:48.145Z,17.20
2023-03-06T10:42:17.642Z,17.10
2023-03-06T10:44:45.282Z,17.00
2023-03-06T10:47:28.922Z,18.33
2023-03-06T10:50:00.933Z,17.98
2023-03-06T10:52:31.646Z,18.42
2023-03-06T10:55:25.542Z,17.77
2023-03-06T10:57:54.658Z,16.33
2023-03-06T11:00:29.377Z,18.48
2023-03-06T11:03:14.742Z,17.80
2023-03-06T11:05:42.510Z,20.42
2023-03-06T11:08:21.179Z,17.17
2023-03-06T11:10:56.951Z,18.70
2023-03-06T11:13:27.587Z,17.63
2023-03-06T11:15:58.363Z,18.05
2023-03-06T11:18:31.042Z,19.10
2023-03-06T11:20:58.784Z,17.65
2023-03-06T11:23:36.734Z,17.52
2023-03-06T11:26:21.105Z,18.60
2023-03-06T11:28:59.187Z,18.20
2023-03-06T11:31:30.107Z,19.08
2023-03-06T11:34:05.187Z,19.88
2023-03-06T11:36:38.796Z,20.13
2023-03-06T11:39:20.105Z,17.98
2023-03-06T11:41:53.506Z,17.35
2023-03-06T11:44:26.443Z,17.42
2023-03-06T11:47:03.956Z,19.95
2023-03-06T11:49:34.972Z,17.52
2023-03-06T11:52:07.307Z,18.95
2023-03-06T11:54:34.973Z,18.48
2023-03-06T11:57:05.816Z,18.90
2023-03-06T11:59:53.557Z,16.10
2023-03-06T12:02:29.351Z,16.23
2023-03-06T12:05:02.431Z,19.02
2023-03-06T12:07:32.006Z,19.42
2023-03-06T12:10:07.397Z,18.20
2023-03-06T12:13:17.479Z,17.42
2023-03-06T12:15:57.113Z,18.30
2023-03-06T12:18:41.232Z,17.83
2023-03-06T12:21:12.636Z,18.73
2023-03-06T12:23:50.930Z,18.35
2023-03-06T12:26:38.812Z,19.40
2023-03-06T12:29:19.068Z,18.83
2023-03-06T12:32:04.799Z,18.45
2023-03-06T12:34:48.073Z,19.20
2023-03-06T12:37:23.427Z,18.95
2023-03-06T12:40:23.067Z,19.02
2023-03-06T12:43:11.775Z,19.88
2023-03-06T12:45:39.760Z,19.20
2023-03-06T12:48:12.708Z,19.83
2023-03-06T12:50:44.364Z,19.65
2023-03-06T12:53:16.085Z,18.50
2023-03-06T12:55:46.965Z,20.15
2023-03-06T12:58:35.728Z,19.58
2023-03-06T13:01:06.119Z,18.60
2023-03-06T13:03:44.923Z,18.70
2023-03-06T13:06:29.818Z,18.13
2023-03-06T13:09:13.425Z,19.02
2023-03-06T13:12:18.959Z,18.20
2023-03-06T13:15:25.610Z,18.83
2023-03-06T13:17:53.256Z,16.98
2023-03-06T13:20:41.201Z,18.23
2023-03-06T13:23:49.592Z,18.17
2023-03-06T13:26:51.317Z,17.08
2023-03-06T13:30:05.035Z,18.40
2023-03-06T13:32:35.084Z,17.55
2023-03-06T13:35:03.368Z,17.08
2023-03-06T13:37:39.735Z,17.60
2023-03-06T13:40:30.119Z,16.45
2023-03-06T13:43:13.838Z,18.08
2023-03-06T13:45:43.290Z,18.98
2023-03-06T13:48:43.217Z,18.75
2023-03-06T13:51:16.635Z,18.17
2023-03-06T13:54:21.797Z,16.77
2023-03-06T13:57:28.223Z,18.40
2023-03-06T14:00:34.809Z,17.95
2023-03-06T14:03:22.658Z,18.13
2023-03-06T14:05:51.557Z,16.33
2023-03-06T14:08:20.936Z,16.90
2023-03-06T14:11:00.601Z,17.30
2023-03-06T14:13:38.422Z,18.45
2023-03-06T14:16:19.680Z,18.75
2023-03-06T14:18:49.152Z,16.90
2023-03-06T14:21:26.191Z,16.83
2023-03-06T14:24:00.511Z,17.42
2023-03-06T14:26:31.408Z,17.00
2023-03-06T14:29:00.198Z,17.95
2023-03-06T14:31:30.151Z,18.13
2023-03-06T14:33:59.872Z,18.10
2023-03-06T14:36:33.557Z,16.48
2023-03-06T14:39:05.462Z,18.33
2023-03-06T14:41:35.854Z,17.50
2023-03-06T14:44:16.135Z,18.65
2023-03-06T14:46:44.208Z,17.02
2023-03-06T14:49:14.742Z,18.05
2023-03-06T14:51:43.964Z,17.55
2023-03-06T14:54:16.944Z,18.08
2023-03-06T14:56:47.726Z,16.33
2023-03-06T14:59:18.329Z,18.55
2023-03-06T15:01:47.560Z,17.00
2023-03-06T15:04:21.354Z,18.42
2023-03-06T15:06:49.116Z,16.58
2023-03-06T15:09:20.527Z,16.23
2023-03-06T15:11:58.269Z,11.80
2023-03-06T15:14:32.668Z,16.98
2023-03-06T15:17:25.024Z,17.08
2023-03-06T15:19:55.262Z,16.67
2023-03-06T15:22:28.380Z,15.85
2023-03-06T15:25:09.588Z,16.85
2023-03-06T15:27:39.233Z,16.60
2023-03-06T15:30:21.828Z,16.67
2023-03-06T15:32:49.514Z,15.15
2023-03-06T15:35:26.979Z,15.73
2023-03-06T15:37:54.789Z,15.50
2023-03-06T15:40:25.180Z,16.25
2023-03-06T15:42:54.347Z,16.80
2023-03-06T15:45:23.567Z,16.48
2023-03-06T15:47:53.174Z,16.75
2023-03-06T15:50:22.304Z,15.55
2023-03-06T15:52:50.615Z,16.60
2023-03-06T15:55:19.741Z,16.52
2023-03-06T15:57:50.758Z,16.05
2023-03-06T16:00:27.638Z,16.80
2023-03-06T16:02:56.381Z,16.45
2023-03-06T16:05:24.507Z,16.40
2023-03-06T16:07:52.292Z,16.80
2023-03-06T16:10:22.002Z,15.68
2023-03-06T16:12:51.147Z,16.67
2023-03-06T16:15:22.834Z,16.95
2023-03-06T16:17:50.540Z,16.33
2023-03-06T16:20:20.973Z,15.18
2023-03-06T16:22:49.889Z,16.02
2023-03-06T16:25:18.552Z,15.88
2023-03-06T16:27:49.504Z,15.65
2023-03-06T16:30:21.282Z,15.98
2023-03-06T16:32:49.161Z,15.20
2023-03-06T16:35:18.436Z,15.23
2023-03-06T16:37:46.788Z,16.08
2023-03-06T16:40:19.767Z,17.40
2023-03-06T16:42:47.856Z,17.98
2023-03-06T16:45:16.172Z,18.40
2023-03-06T16:47:46.070Z,18.08
2023-03-06T16:50:22.566Z,17.05
2023-03-06T16:52:50.501Z,17.38
2023-03-06T16:55:18.347Z,21.55
2023-03-06T16:57:46.004Z,18.45
2023-03-06T17:00:15.743Z,17.73
2023-03-06T17:02:45.441Z,18.00
2023-03-06T17:05:13.269Z,16.92
2023-03-06T17:07:41.664Z,16.70
2023-03-06T17:10:11.414Z,16.65
2023-03-06T17:12:39.348Z,23.60
2023-03-06T17:15:08.448Z,25.40
2023-03-06T17:17:36.387Z,20.38
2023-03-06T17:20:07.541Z,19.05
2023-03-06T17:22:35.993Z,19.37
2023-03-06T17:25:05.100Z,21.25
2023-03-06T17:27:32.807Z,19.48
2023-03-06T17:33:48.292Z,19.45
2023-03-06T17:36:19.161Z,18.70
2023-03-06T17:38:47.059Z,19.83
2023-03-06T17:41:15.017Z,20.52
2023-03-06T17:43:42.788Z,18.70
2023-03-06T17:46:12.909Z,18.95
2023-03-06T17:48:41.162Z,18.88
2023-03-06T17:51:10.333Z,18.50
2023-03-06T17:53:38.126Z,20.05
2023-03-06T17:56:07.011Z,18.73
2023-03-06T17:58:34.952Z,17.65
2023-03-06T18:01:10.841Z,17.27
2023-03-06T18:03:38.771Z,17.30
2023-03-06T18:06:09.391Z,17.33
2023-03-06T18:08:38.773Z,18.58
2023-03-06T18:11:07.687Z,17.50
2023-03-06T18:13:36.577Z,15.57
2023-03-06T18:16:05.100Z,18.23
2023-03-06T18:18:33.389Z,15.65
2023-03-06T18:21:04.425Z,16.77
2023-03-06T18:23:32.442Z,17.98
2023-03-06T18:26:10.401Z,16.63
2023-03-06T18:28:39.825Z,17.63
2023-03-06T18:31:08.815Z,19.25
2023-03-06T18:33:36.659Z,17.88
2023-03-06T18:36:05.019Z,18.05
2023-03-06T18:38:32.622Z,19.95
2023-03-06T18:41:00.243Z,19.30
2023-03-06T18:43:29.198Z,18.30
2023-03-06T18:45:57.388Z,19.05
2023-03-06T18:48:25.432Z,17.30
2023-03-06T18:50:53.051Z,18.20
2023-03-06T18:53:21.091Z,17.85
2023-03-06T18:55:49.356Z,16.85
2023-03-06T18:58:16.970Z,16.58
2023-03-06T19:00:46.316Z,15.95
2023-03-06T19:03:14.434Z,16.02
2023-03-06T19:05:42.555Z,16.33
2023-03-06T19:08:10.564Z,15.60
2023-03-06T19:10:38.858Z,15.55
2023-03-06T19:13:07.074Z,16.45
2023-03-06T19:15:34.837Z,17.08
2023-03-06T19:18:03.855Z,16.40
2023-03-06T19:20:31.536Z,15.90
2023-03-06T19:22:59.178Z,15.63
2023-03-06T19:25:26.805Z,16.30
2023-03-06T19:27:54.386Z,16.88
2023-03-06T19:30:25.530Z,16.50
2023-03-06T19:32:54.494Z,17.17
2023-03-06T19:35:24.420Z,18.02
2023-03-06T19:37:52.225Z,18.05
2023-03-06T19:40:20.395Z,16.05
2023-03-06T19:42:48.129Z,16.67
2023-03-06T19:45:15.804Z,16.83
2023-03-06T19:47:43.453Z,15.15
2023-03-06T19:50:12.192Z,15.57
2023-03-06T19:52:41.379Z,17.95
2023-03-06T19:55:10.439Z,19.88
2023-03-06T19:57:38.096Z,24.60
2023-03-06T20:00:06.678Z,22.30
2023-03-06T20:02:35.397Z,22.73
2023-03-06T20:05:03.144Z,20.38
2023-03-06T20:07:30.825Z,19.15
2023-03-06T20:10:00.724Z,18.40
2023-03-06T20:12:28.348Z,19.48
2023-03-06T20:14:55.981Z,20.15
2023-03-06T20:17:23.661Z,17.98
2023-03-06T20:19:51.669Z,18.83
2023-03-06T20:22:20.075Z,17.77
2023-03-06T20:24:47.827Z,17.55
2023-03-06T20:27:16.953Z,16.45
2023-03-06T20:29:45.613Z,17.77
2023-03-06T20:32:13.850Z,20.60
2023-03-06T20:34:41.783Z,17.38
2023-03-06T20:37:10.370Z,18.50
2023-03-06T20:39:38.397Z,16.90
2023-03-06T20:42:06.839Z,19.17
2023-03-06T20:44:36.222Z,17.00
2023-03-06T20:47:03.821Z,20.63
2023-03-06T20:49:31.614Z,19.60
2023-03-06T20:51:59.220Z,17.42
2023-03-06T20:54:26.868Z,18.02
2023-03-06T20:56:54.569Z,17.98
2023-03-06T20:59:23.689Z,17.25
2023-03-06T21:01:52.683Z,16.70
2023-03-06T21:04:20.358Z,17.67
2023-03-06T21:06:48.093Z,17.58
2023-03-06T21:09:17.558Z,17.88
2023-03-06T21:11:45.662Z,16.30
2023-03-06T21:14:14.287Z,16.92
2023-03-06T21:16:42.231Z,17.63
2023-03-06T21:19:12.012Z,16.70
2023-03-06T21:21:39.632Z,17.05
2023-03-06T21:24:07.500Z,15.90
2023-03-06T21:26:35.228Z,15.73
2023-03-06T21:29:03.556Z,16.35
2023-03-06T21:31:31.785Z,15.65
2023-03-06T21:33:59.695Z,15.43
2023-03-06T21:36:29.386Z,16.65
2023-03-06T21:38:56.992Z,15.45
2023-03-06T21:41:25.871Z,16.55
2023-03-06T21:43:57.516Z,19.25
2023-03-06T21:46:25.859Z,18.08
2023-03-06T21:48:54.436Z,18.85
2023-03-06T21:51:23.451Z,17.27
2023-03-06T21:53:53.873Z,16.80
2023-03-06T21:56:24.927Z,17.90
2023-03-06T21:58:52.640Z,18.05
2023-03-06T22:01:23.113Z,17.25
2023-03-06T22:03:51.621Z,15.70
2023-03-06T22:06:21.767Z,18.10
2023-03-06T22:08:49.457Z,17.38
2023-03-06T22:11:20.559Z,17.42
2023-03-06T22:13:48.967Z,17.55
2023-03-06T22:16:17.421Z,15.98
2023-03-06T22:18:45.777Z,17.42
2023-03-06T22:21:14.935Z,16.23
2023-03-06T22:23:42.967Z,18.05
2023-03-06T22:26:12.597Z,17.40
2023-03-06T22:28:41.889Z,19.45
2023-03-06T22:31:11.047Z,18.42
2023-03-06T22:33:38.753Z,19.55
2023-03-06T22:36:07.909Z,18.75
2023-03-06T22:38:36.845Z,17.90
2023-03-06T22:41:05.289Z,18.75
2023-03-06T22:43:33.742Z,19.17
2023-03-06T22:46:03.866Z,17.90
2023-03-06T22:48:31.608Z,19.52
2023-03-06T22:51:03.241Z,18.42
2023-03-06T22:53:30.887Z,18.92
2023-03-06T22:55:59.804Z,18.17
2023-03-06T22:58:28.376Z,18.15
2023-03-06T23:00:56.052Z,18.65
2023-03-06T23:03:25.130Z,17.67
2023-03-06T23:05:52.756Z,17.33
2023-03-06T23:08:20.402Z,17.38
2023-03-06T23:10:48.093Z,17.17
2023-03-06T23:13:15.767Z,15.60
2023-03-06T23:15:43.511Z,17.58
2023-03-06T23:18:11.195Z,17.42
2023-03-06T23:20:43.942Z,16.42
2023-03-06T23:23:11.943Z,17.25
2023-03-06T23:25:39.630Z,16.70
2023-03-06T23:28:07.625Z,16.48
2023-03-06T23:30:35.232Z,15.75
2023-03-06T23:33:02.880Z,16.17
2023-03-06T23:35:30.469Z,17.52
2023-03-06T23:38:00.049Z,15.27
2023-03-06T23:40:27.873Z,15.45
2023-03-06T23:42:55.506Z,15.40
2023-03-06T23:45:23.230Z,14.20
2023-03-06T23:47:50.911Z,14.85
2023-03-06T23:50:18.927Z,15.82
2023-03-06T23:52:46.642Z,15.55
2023-03-06T23:55:15.680Z,16.17
2023-03-06T23:57:43.300Z,15.32
